Time;durP1;ratioP1;P1;durP2;ratioP2;P2;SDS_P1;SDS_P2;PMS_P1;PMS_P2;Temp;Humidity;BMP_temperature;BMP_pressure;BME280_temperature;BME280_humidity;BME280_pressure;Samples;Min_cycle;Max_cycle;Signal;HPM_P1;HPM_P2
2023/12/06 00:02:16;;;;;;;1999.90;999.90;;;2.80;99.90;;;;;;4994474;28;20300;-71
2023/12/06 00:04:42;;;;;;;1999.90;999.90;;;2.80;99.90;;;;;;4994915;28;20625;-71
2023/12/06 00:07:07;;;;;;;1999.90;999.90;;;2.90;99.90;;;;;;4994614;28;20181;-71
2023/12/06 00:09:33;;;;;;;1999.90;999.90;;;2.80;99.90;;;;;;4994773;28;20169;-71
2023/12/06 00:11:58;;;;;;;1999.90;999.90;;;2.80;99.90;;;;;;4994734;28;20177;-72
2023/12/06 00:14:24;;;;;;;1999.90;999.90;;;2.80;99.90;;;;;;4994692;28;20231;-71
2023/12/06 00:16:49;;;;;;;1999.90;999.90;;;2.80;99.90;;;;;;4994765;28;20182;-71
2023/12/06 00:19:15;;;;;;;1999.90;999.90;;;2.80;99.90;;;;;;4994460;28;20225;-71
2023/12/06 00:21:41;;;;;;;1999.90;999.90;;;2.80;99.90;;;;;;4994608;28;20208;-70
2023/12/06 00:24:08;;;;;;;1999.90;999.90;;;2.70;99.90;;;;;;4994606;28;20577;-71
2023/12/06 00:26:34;;;;;;;1999.90;999.90;;;2.70;99.90;;;;;;4994631;28;20775;-71
2023/12/06 00:28:59;;;;;;;1999.90;999.90;;;2.70;99.90;;;;;;4994163;28;20186;-71
2023/12/06 00:31:25;;;;;;;1999.90;999.90;;;2.70;99.90;;;;;;4994703;28;20625;-71
2023/12/06 00:33:50;;;;;;;1999.90;999.90;;;2.70;99.90;;;;;;4994497;28;20551;-71
2023/12/06 00:36:16;;;;;;;1999.90;999.90;;;2.70;99.90;;;;;;4994377;28;20173;-72
2023/12/06 00:38:42;;;;;;;1999.90;999.90;;;2.60;99.90;;;;;;4994045;28;20273;-71
2023/12/06 00:41:07;;;;;;;1999.90;999.90;;;2.60;99.90;;;;;;4994172;28;20735;-71
2023/12/06 00:43:33;;;;;;;1999.90;999.90;;;2.60;99.90;;;;;;4994077;28;20176;-71
2023/12/06 00:45:58;;;;;;;1999.90;999.90;;;2.70;99.90;;;;;;4994130;28;20165;-71
2023/12/06 00:48:24;;;;;;;1999.90;999.90;;;2.70;99.90;;;;;;4993833;28;20669;-71
2023/12/06 00:50:49;;;;;;;1999.90;999.90;;;2.70;99.90;;;;;;4994102;28;20591;-71
2023/12/06 00:53:15;;;;;;;1999.90;999.90;;;2.70;99.90;;;;;;4994002;28;20170;-71
2023/12/06 00:55:40;;;;;;;1999.90;999.90;;;2.70;99.90;;;;;;4993957;28;20232;-71
2023/12/06 00:58:06;;;;;;;1999.90;999.90;;;2.70;99.90;;;;;;4993660;28;20220;-71
2023/12/06 01:00:31;;;;;;;1999.90;999.90;;;2.70;99.90;;;;;;4993743;28;20166;-71
2023/12/06 01:02:57;;;;;;;1999.90;999.90;;;2.60;99.90;;;;;;4993824;28;20251;-71
2023/12/06 01:05:23;;;;;;;1999.90;999.90;;;2.60;99.90;;;;;;4993835;28;20173;-71
2023/12/06 01:07:48;;;;;;;1999.90;999.90;;;2.60;99.90;;;;;;4993302;28;20209;-71
2023/12/06 01:10:14;;;;;;;1999.90;999.90;;;2.60;99.90;;;;;;4993622;28;20308;-71
2023/12/06 01:12:39;;;;;;;1999.90;999.90;;;2.60;99.90;;;;;;4993584;28;20243;-71
2023/12/06 01:15:05;;;;;;;1999.90;999.90;;;2.60;99.90;;;;;;4992704;28;20174;-71
2023/12/06 01:17:34;;;;;;;1999.90;999.90;;;2.50;99.90;;;;;;4993242;28;20194;-71
2023/12/06 01:20:00;;;;;;;1999.90;999.90;;;2.60;99.90;;;;;;4993600;28;20178;-71
2023/12/06 01:22:25;;;;;;;1999.90;999.90;;;2.50;99.90;;;;;;4993297;28;20207;-70
2023/12/06 01:24:59;;;;;;;1999.90;999.90;;;2.60;99.90;;;;;;4993510;28;20464;-71
2023/12/06 01:27:25;;;;;;;1999.90;999.90;;;2.50;99.90;;;;;;4993137;28;20178;-71
2023/12/06 01:29:50;;;;;;;1999.90;999.90;;;2.50;99.90;;;;;;4993289;28;20176;-71
2023/12/06 01:32:16;;;;;;;1999.90;999.90;;;2.50;99.90;;;;;;4993437;28;20197;-71
2023/12/06 01:34:41;;;;;;;1999.90;999.90;;;2.40;99.90;;;;;;4993242;28;20173;-71
2023/12/06 01:37:07;;;;;;;1999.90;999.90;;;2.90;99.90;;;;;;4993005;28;20205;-72
2023/12/06 01:39:33;;;;;;;1999.90;999.90;;;2.40;99.90;;;;;;4993224;28;20164;-71
2023/12/06 01:41:58;;;;;;;1999.90;999.90;;;2.40;99.90;;;;;;4993150;28;20197;-71
2023/12/06 01:44:24;;;;;;;1999.90;999.90;;;2.40;99.90;;;;;;4993320;28;20177;-71
2023/12/06 01:46:50;;;;;;;1999.90;999.90;;;2.40;99.90;;;;;;4993325;28;20174;-71
2023/12/06 01:49:16;;;;;;;1999.90;999.90;;;2.40;99.90;;;;;;4992785;28;20259;-71
2023/12/06 01:51:42;;;;;;;1999.90;999.90;;;2.40;99.90;;;;;;4992959;28;20173;-72
2023/12/06 01:54:09;;;;;;;1999.90;999.90;;;2.30;99.90;;;;;;4993045;28;20440;-71
2023/12/06 01:56:36;;;;;;;1999.90;999.90;;;2.40;99.90;;;;;;4993071;28;20208;-70
2023/12/06 01:59:02;;;;;;;1999.90;999.90;;;2.40;99.90;;;;;;4992760;28;20224;-71
2023/12/06 02:01:28;;;;;;;1999.90;999.90;;;2.40;99.90;;;;;;4992882;28;20216;-71
2023/12/06 02:03:54;;;;;;;1999.90;999.90;;;2.40;99.90;;;;;;4992745;28;20412;-71
2023/12/06 02:06:20;;;;;;;1999.90;999.90;;;2.30;99.90;;;;;;4992916;28;20174;-71
2023/12/06 02:08:46;;;;;;;1999.90;999.90;;;2.40;99.90;;;;;;4992454;28;20197;-71
2023/12/06 02:11:12;;;;;;;1999.90;999.90;;;2.30;99.90;;;;;;4992727;28;20181;-71
2023/12/06 02:13:38;;;;;;;1999.90;999.90;;;2.20;99.90;;;;;;4992591;28;20653;-71
2023/12/06 02:16:05;;;;;;;1999.90;999.90;;;2.30;99.90;;;;;;4992694;28;20202;-71
2023/12/06 02:18:31;;;;;;;1999.90;999.90;;;2.30;99.90;;;;;;4992296;28;20204;-71
2023/12/06 02:20:58;;;;;;;1999.90;999.90;;;2.30;99.90;;;;;;4992451;28;20201;-71
2023/12/06 02:23:31;;;;;;;1999.90;999.90;;;2.20;99.90;;;;;;4992600;28;20629;-71
2023/12/06 02:25:57;;;;;;;1999.90;999.90;;;2.20;99.90;;;;;;4996761;28;20166;-71
2023/12/06 02:28:23;;;;;;;1999.90;999.90;;;2.30;99.90;;;;;;4998799;28;20195;-71
2023/12/06 02:30:48;;;;;;;1999.90;999.90;;;2.20;99.90;;;;;;4998955;28;20467;-72
2023/12/06 02:33:14;;;;;;;1999.90;999.90;;;2.20;99.90;;;;;;4998929;28;20173;-72
2023/12/06 02:35:45;;;;;;;1999.90;999.90;;;2.10;99.90;;;;;;4998905;28;20170;-71
2023/12/06 02:38:13;;;;;;;1999.90;999.90;;;2.30;99.90;;;;;;4998681;28;20618;-71
2023/12/06 02:40:40;;;;;;;1999.90;999.90;;;2.30;99.90;;;;;;4998814;28;20228;-71
2023/12/06 02:43:06;;;;;;;1999.90;999.90;;;2.30;99.90;;;;;;4998843;28;20169;-71
2023/12/06 02:45:32;;;;;;;1999.90;999.90;;;2.30;99.90;;;;;;4998884;28;20181;-72
2023/12/06 02:47:57;;;;;;;1999.90;999.90;;;2.30;99.90;;;;;;4998515;28;20196;-72
2023/12/06 02:50:23;;;;;;;1999.90;999.90;;;2.30;99.90;;;;;;4998816;28;20166;-72
2023/12/06 02:52:48;;;;;;;1999.90;999.90;;;2.30;99.90;;;;;;4998724;28;20181;-71
2023/12/06 02:55:14;;;;;;;1999.90;999.90;;;2.40;99.90;;;;;;4998758;28;20250;-71
2023/12/06 02:57:39;;;;;;;1999.90;999.90;;;2.40;99.90;;;;;;4998468;28;20194;-71
2023/12/06 03:00:06;;;;;;;1999.90;999.90;;;2.40;99.90;;;;;;4998735;28;20180;-71
2023/12/06 03:02:33;;;;;;;1999.90;999.90;;;2.40;99.90;;;;;;4998623;28;20299;-71
2023/12/06 03:04:58;;;;;;;1999.90;999.90;;;2.50;99.90;;;;;;4998644;28;20571;-71
2023/12/06 03:07:24;;;;;;;1999.90;999.90;;;2.40;99.90;;;;;;4998230;28;20202;-71
2023/12/06 03:09:50;;;;;;;1999.90;999.90;;;2.50;99.90;;;;;;4998639;28;20170;-71
2023/12/06 03:12:15;;;;;;;1999.90;999.90;;;2.40;99.90;;;;;;4998590;28;20224;-71
2023/12/06 03:14:41;;;;;;;1999.90;999.90;;;2.40;99.90;;;;;;4998588;28;20248;-71
2023/12/06 03:17:06;;;;;;;1999.90;999.90;;;2.40;99.90;;;;;;4998352;28;20599;-71
2023/12/06 03:19:32;;;;;;;1999.90;999.90;;;2.40;99.90;;;;;;4998516;28;20173;-71
2023/12/06 03:21:57;;;;;;;1999.90;999.90;;;2.40;99.90;;;;;;4998447;28;20229;-71
2023/12/06 03:24:23;;;;;;;1999.90;999.90;;;2.40;99.90;;;;;;4998513;28;20174;-71
2023/12/06 03:26:48;;;;;;;1999.90;999.90;;;2.40;99.90;;;;;;4998539;28;20180;-71
2023/12/06 03:29:14;;;;;;;1999.90;999.90;;;2.30;99.90;;;;;;4998542;28;20217;-72
2023/12/06 03:31:40;;;;;;;1999.90;999.90;;;2.30;99.90;;;;;;4998391;28;20174;-71
2023/12/06 03:34:05;;;;;;;1999.90;999.90;;;2.30;99.90;;;;;;4998586;28;20725;-72
2023/12/06 03:36:31;;;;;;;1999.90;999.90;;;2.40;99.90;;;;;;4996885;28;20397;-71
2023/12/06 03:38:57;;;;;;;1999.90;999.90;;;2.30;99.90;;;;;;4994980;28;20192;-71
2023/12/06 03:41:22;;;;;;;1999.90;999.90;;;2.40;99.90;;;;;;4995332;28;20199;-72
2023/12/06 03:43:48;;;;;;;1999.90;999.90;;;2.30;99.90;;;;;;4995474;28;20166;-71
2023/12/06 03:46:13;;;;;;;1999.90;999.90;;;2.40;99.90;;;;;;4995485;28;20157;-71
2023/12/06 03:48:39;;;;;;;1999.90;999.90;;;2.40;99.90;;;;;;4995054;28;20691;-71
2023/12/06 03:51:05;;;;;;;1999.90;999.90;;;2.40;99.90;;;;;;4995162;28;20650;-71
2023/12/06 03:53:30;;;;;;;1999.90;999.90;;;2.40;99.90;;;;;;4995329;28;20177;-71
2023/12/06 03:55:56;;;;;;;1999.90;999.90;;;2.40;99.90;;;;;;4995302;28;20444;-71
2023/12/06 03:58:23;;;;;;;1999.90;999.90;;;2.40;99.90;;;;;;4994920;28;20549;-71
2023/12/06 04:00:48;;;;;;;1999.90;999.90;;;2.40;99.90;;;;;;4995099;28;20641;-71
2023/12/06 04:03:14;;;;;;;1999.90;999.90;;;2.40;99.90;;;;;;4995105;28;20224;-71
2023/12/06 04:05:44;;;;;;;1999.90;999.90;;;2.40;99.90;;;;;;4994983;28;20715;-71
2023/12/06 04:08:11;;;;;;;1999.90;999.90;;;2.50;99.90;;;;;;5034650;23;21101;-69
2023/12/06 04:10:37;;;;;;;1999.90;999.90;;;2.50;99.90;;;;;;4994597;28;20266;-71
2023/12/06 04:13:04;;;;;;;1999.90;999.90;;;2.50;99.90;;;;;;4994594;28;20197;-71
2023/12/06 04:15:30;;;;;;;1999.90;999.90;;;2.60;99.90;;;;;;4995601;28;20174;-70
2023/12/06 04:17:56;;;;;;;1999.90;999.90;;;2.60;99.90;;;;;;5000383;28;20607;-72
2023/12/06 04:20:21;;;;;;;1999.90;999.90;;;2.60;99.90;;;;;;4994988;28;20405;-69
2023/12/06 04:22:47;;;;;;;1999.90;999.90;;;2.70;99.90;;;;;;4992446;28;20472;-70
2023/12/06 04:25:14;;;;;;;1999.90;999.90;;;2.70;99.90;;;;;;4994469;28;20653;-69
2023/12/06 04:27:39;;;;;;;1999.90;999.90;;;2.50;99.90;;;;;;4996532;28;20194;-72
2023/12/06 04:30:06;;;;;;;1999.90;999.90;;;2.60;99.90;;;;;;4995016;28;20672;-72
2023/12/06 04:32:31;;;;;;;1999.90;999.90;;;2.70;99.90;;;;;;4996886;28;20185;-70
2023/12/06 04:34:57;;;;;;;1999.90;999.90;;;2.70;99.90;;;;;;4994289;28;20170;-71
2023/12/06 04:37:23;;;;;;;1999.90;999.90;;;2.70;99.90;;;;;;4994002;28;20265;-71
2023/12/06 04:39:48;;;;;;;1999.90;999.90;;;2.70;99.90;;;;;;4997670;28;20586;-71
2023/12/06 04:42:15;;;;;;;1999.90;999.90;;;2.80;99.90;;;;;;4994097;28;20471;-70
2023/12/06 04:44:41;;;;;;;1999.90;999.90;;;2.80;99.90;;;;;;4996217;28;20174;-73
2023/12/06 04:47:07;;;;;;;1999.90;999.90;;;2.80;99.90;;;;;;4995519;28;20232;-70
2023/12/06 04:49:32;;;;;;;1999.90;999.90;;;2.80;99.90;;;;;;4994420;28;20669;-73
2023/12/06 04:51:59;;;;;;;1999.90;999.90;;;2.80;99.90;;;;;;4996092;28;20193;-73
2023/12/06 04:54:25;;;;;;;1999.90;999.90;;;2.70;99.90;;;;;;4996814;28;20417;-70
2023/12/06 04:56:51;;;;;;;1999.90;999.90;;;2.80;99.90;;;;;;4994941;28;20239;-71
2023/12/06 04:59:17;;;;;;;1999.90;999.90;;;2.80;99.90;;;;;;4993696;28;20200;-71
2023/12/06 05:01:45;;;;;;;1999.90;999.90;;;2.80;99.90;;;;;;4993561;28;20986;-69
2023/12/06 05:04:11;;;;;;;1999.90;999.90;;;2.80;99.90;;;;;;4993846;28;21117;-70
2023/12/06 05:06:37;;;;;;;1999.90;999.90;;;4.30;99.90;;;;;;4993617;28;20181;-70
2023/12/06 05:09:10;;;;;;;1999.90;999.90;;;2.80;99.90;;;;;;4985242;28;20205;-70
2023/12/06 05:11:36;;;;;;;1999.90;999.90;;;2.70;99.90;;;;;;4993595;28;20264;-70
2023/12/06 05:14:02;;;;;;;1999.90;999.90;;;2.80;99.90;;;;;;4993589;28;20249;-70
2023/12/06 05:16:28;;;;;;;1999.90;999.90;;;2.70;99.90;;;;;;4993472;28;20423;-71
2023/12/06 05:18:53;;;;;;;1999.90;999.90;;;2.70;99.90;;;;;;4993504;28;20669;-71
2023/12/06 05:21:19;;;;;;;1999.90;999.90;;;;;;;;;;4993357;28;20966;-71
2023/12/06 05:23:45;;;;;;;1999.90;999.90;;;2.70;99.90;;;;;;4993428;28;20240;-71
2023/12/06 05:26:11;;;;;;;1999.90;999.90;;;2.80;99.90;;;;;;4996009;28;20922;-73
2023/12/06 05:28:37;;;;;;;1999.90;999.90;;;2.80;99.90;;;;;;4992225;28;20857;-72
2023/12/06 05:31:02;;;;;;;1999.90;999.90;;;2.90;99.90;;;;;;4994597;28;20210;-70
2023/12/06 05:33:28;;;;;;;1999.90;999.90;;;;;;;;;;5008172;28;20178;-71
2023/12/06 05:35:57;;;;;;;1999.90;999.90;;;2.90;99.90;;;;;;4992951;28;20415;-71
2023/12/06 05:38:22;;;;;;;1999.90;999.90;;;2.90;99.90;;;;;;4992772;28;20436;-70
2023/12/06 05:40:49;;;;;;;1999.90;999.90;;;2.90;99.90;;;;;;4996089;28;20209;-72
2023/12/06 05:43:15;;;;;;;1999.90;999.90;;;2.90;99.90;;;;;;4999205;28;20166;-70
2023/12/06 05:45:41;;;;;;;1999.90;999.90;;;3.00;99.90;;;;;;4996349;28;20405;-72
2023/12/06 05:48:07;;;;;;;1999.90;999.90;;;2.50;99.90;;;;;;4993366;28;20197;-70
2023/12/06 05:50:32;;;;;;;1999.90;999.90;;;2.90;99.90;;;;;;4993431;28;20173;-71
2023/12/06 05:52:58;;;;;;;1999.90;999.90;;;3.00;99.90;;;;;;4992918;28;20244;-70
2023/12/06 05:55:24;;;;;;;1999.90;999.90;;;3.00;99.90;;;;;;4994472;28;20174;-73
2023/12/06 05:57:49;;;;;;;1999.90;999.90;;;3.00;99.90;;;;;;4993587;28;20511;-72
2023/12/06 06:00:17;;;;;;;1999.90;999.90;;;3.00;99.90;;;;;;4992139;28;20185;-71
2023/12/06 06:02:43;;;;;;;1999.90;999.90;;;3.00;99.90;;;;;;4993260;28;20197;-71
2023/12/06 06:05:10;;;;;;;1999.90;999.90;;;3.10;99.90;;;;;;4992564;28;20924;-71
2023/12/06 06:07:36;;;;;;;1999.90;999.90;;;3.10;99.90;;;;;;4992167;28;20212;-71
2023/12/06 06:10:02;;;;;;;1999.90;999.90;;;3.10;99.90;;;;;;4993389;28;20169;-70
2023/12/06 06:12:28;;;;;;;1999.90;999.90;;;3.10;99.90;;;;;;4992481;28;20247;-70
2023/12/06 06:14:54;;;;;;;1999.90;999.90;;;3.10;99.90;;;;;;4992418;28;20252;-71
2023/12/06 06:17:19;;;;;;;1999.90;999.90;;;3.20;99.90;;;;;;4992403;28;20301;-71
2023/12/06 06:19:45;;;;;;;1999.90;999.90;;;3.20;99.90;;;;;;4991087;28;20177;-71
2023/12/06 06:22:11;;;;;;;1999.90;999.90;;;3.20;99.90;;;;;;4992321;28;20216;-72
2023/12/06 06:24:36;;;;;;;1999.90;999.90;;;3.20;99.90;;;;;;4992389;28;20174;-71
2023/12/06 06:27:02;;;;;;;1999.90;999.90;;;3.20;99.90;;;;;;4992395;28;20264;-71
2023/12/06 06:29:28;;;;;;;1999.90;999.90;;;;;;;;;;4992310;28;20201;-71
2023/12/06 06:31:54;;;;;;;1999.90;999.90;;;3.20;99.90;;;;;;4992165;28;20185;-72
2023/12/06 06:34:20;;;;;;;1999.90;999.90;;;3.60;99.90;;;;;;4992278;28;20656;-72
2023/12/06 06:36:46;;;;;;;1999.90;999.90;;;3.20;99.90;;;;;;4992293;28;20202;-72
2023/12/06 06:39:12;;;;;;;1999.90;999.90;;;3.30;99.90;;;;;;4992034;28;20640;-71
2023/12/06 06:41:38;;;;;;;1999.90;999.90;;;3.30;99.90;;;;;;4992038;28;20197;-71
2023/12/06 06:44:04;;;;;;;1999.90;999.90;;;3.30;99.90;;;;;;4992049;28;20420;-71
2023/12/06 06:46:30;;;;;;;1999.90;999.90;;;3.30;99.90;;;;;;4992241;28;20174;-71
2023/12/06 06:48:56;;;;;;;1999.90;999.90;;;3.30;99.90;;;;;;4991929;28;20271;-71
2023/12/06 06:51:31;;;;;;;1999.90;999.90;;;3.20;99.90;;;;;;4992108;28;20236;-73
2023/12/06 06:53:58;;;;;;;1999.90;999.90;;;3.30;99.90;;;;;;4995167;28;20428;-71
2023/12/06 06:56:23;;;;;;;1999.90;999.90;;;3.40;99.90;;;;;;4991590;28;20178;-71
2023/12/06 06:58:49;;;;;;;1999.90;999.90;;;3.40;99.90;;;;;;4991540;28;20448;-71
2023/12/06 07:01:14;;;;;;;1999.90;999.90;;;3.40;99.90;;;;;;4991952;28;20197;-71
2023/12/06 07:03:40;;;;;;;1999.90;999.90;;;3.40;99.90;;;;;;4991961;28;20605;-71
2023/12/06 07:06:06;;;;;;;1999.90;999.90;;;3.70;99.90;;;;;;4992059;28;20173;-71
2023/12/06 07:08:32;;;;;;;1999.90;999.90;;;3.40;99.90;;;;;;4993703;28;20220;-73
2023/12/06 07:10:57;;;;;;;1999.90;999.90;;;3.50;99.90;;;;;;4989012;28;20170;-71
2023/12/06 07:13:23;;;;;;;1999.90;999.90;;;3.40;99.90;;;;;;4990815;28;20582;-71
2023/12/06 07:15:48;;;;;;;1999.90;999.90;;;3.50;99.90;;;;;;4996204;28;20169;-73
2023/12/06 07:18:14;;;;;;;1999.90;999.90;;;3.50;99.90;;;;;;4995490;28;20287;-71
2023/12/06 07:20:40;;;;;;;1999.90;999.90;;;3.50;99.90;;;;;;4995537;28;20173;-72
2023/12/06 07:23:06;;;;;;;1999.90;999.90;;;3.50;99.90;;;;;;4995390;28;20571;-71
2023/12/06 07:25:32;;;;;;;1999.90;999.90;;;3.50;99.90;;;;;;4995538;28;20166;-73
2023/12/06 07:27:58;;;;;;;1999.90;999.90;;;3.50;99.90;;;;;;4993108;28;20640;-71
2023/12/06 07:30:24;;;;;;;1999.90;999.90;;;3.50;99.90;;;;;;4995036;28;20241;-71
2023/12/06 07:32:49;;;;;;;1999.90;999.90;;;3.50;99.90;;;;;;4995052;28;20490;-72
2023/12/06 07:35:15;;;;;;;1999.90;999.90;;;3.50;99.90;;;;;;4990155;28;20421;-71
2023/12/06 07:37:41;;;;;;;1999.90;999.90;;;;;;;;;;4992519;28;20228;-72
2023/12/06 07:40:11;;;;;;;1999.90;999.90;;;3.60;99.90;;;;;;4994917;28;20181;-72
2023/12/06 07:42:36;;;;;;;1999.90;999.90;;;3.60;99.90;;;;;;4994512;28;20189;-71
2023/12/06 07:45:02;;;;;;;1999.90;999.90;;;3.50;99.90;;;;;;4988538;28;20178;-72
2023/12/06 07:47:29;;;;;;;1999.90;999.90;;;3.60;99.90;;;;;;4994022;28;20944;-72
2023/12/06 07:49:54;;;;;;;1999.90;999.90;;;3.70;99.90;;;;;;4994548;28;20916;-72
2023/12/06 07:52:20;;;;;;;1999.90;999.90;;;3.70;99.90;;;;;;4994862;28;20396;-75
2023/12/06 07:54:46;;;;;;;1999.90;999.90;;;3.70;99.90;;;;;;4994833;28;20177;-72
2023/12/06 07:57:13;;;;;;;1999.90;999.90;;;3.80;99.90;;;;;;4994337;28;20172;-72
2023/12/06 07:59:39;;;;;;;1999.90;999.90;;;3.90;99.90;;;;;;4994613;28;20437;-73
2023/12/06 08:02:04;;;;;;;1999.90;999.90;;;3.80;99.90;;;;;;4994237;28;20478;-72
2023/12/06 08:04:30;;;;;;;1999.90;999.90;;;3.90;99.90;;;;;;4994375;28;20178;-71
2023/12/06 08:06:56;;;;;;;1999.90;999.90;;;3.90;99.90;;;;;;4994995;28;20271;-74
2023/12/06 08:09:23;;;;;;;1999.90;999.90;;;3.90;99.90;;;;;;4995842;28;20232;-74
2023/12/06 08:11:48;;;;;;;1999.90;999.90;;;4.00;99.90;;;;;;4997315;28;20421;-73
2023/12/06 08:14:14;;;;;;;1999.90;999.90;;;4.00;99.90;;;;;;4998893;28;20440;-74
2023/12/06 08:16:42;;;;;;;1999.90;999.90;;;4.00;99.90;;;;;;4999840;28;20173;-73
2023/12/06 08:19:08;;;;;;;1999.90;999.90;;;4.00;99.90;;;;;;4997601;28;20189;-73
2023/12/06 08:21:33;;;;;;;1999.90;999.90;;;4.00;99.90;;;;;;5001992;28;20857;-72
2023/12/06 08:24:00;;;;;;;1999.90;999.90;;;4.00;99.90;;;;;;4993733;28;20185;-72
2023/12/06 08:26:25;;;;;;;1999.90;999.90;;;3.80;99.90;;;;;;4993883;28;20201;-72
2023/12/06 08:28:51;;;;;;;1999.90;999.90;;;;;;;;;;4992611;28;20283;-71
2023/12/06 08:31:17;;;;;;;1999.90;999.90;;;4.00;99.90;;;;;;4994018;28;20166;-72
2023/12/06 08:33:43;;;;;;;1999.90;999.90;;;4.10;99.90;;;;;;4993969;28;20779;-72
2023/12/06 08:36:08;;;;;;;1999.90;999.90;;;4.10;99.90;;;;;;4993926;28;20177;-72
2023/12/06 08:38:34;;;;;;;1999.90;999.90;;;4.00;99.90;;;;;;4993528;28;20270;-72
2023/12/06 08:40:59;;;;;;;1999.90;999.90;;;4.10;99.90;;;;;;4993784;28;20178;-72
2023/12/06 08:43:25;;;;;;;1999.90;999.90;;;3.80;99.90;;;;;;4993918;28;20170;-72
2023/12/06 08:45:51;;;;;;;1999.90;999.90;;;4.10;99.90;;;;;;4993698;28;20170;-72
2023/12/06 08:48:17;;;;;;;1999.90;999.90;;;4.10;99.90;;;;;;5008478;28;20194;-72
2023/12/06 08:50:42;;;;;;;1999.90;999.90;;;4.00;99.90;;;;;;4993740;28;20700;-71
2023/12/06 08:53:08;;;;;;;1999.90;999.90;;;4.10;99.90;;;;;;4993566;28;20176;-71
2023/12/06 08:55:34;;;;;;;1999.90;999.90;;;4.20;99.90;;;;;;4993494;28;20166;-72
2023/12/06 08:58:00;;;;;;;1999.90;999.90;;;4.20;99.90;;;;;;4992106;28;20444;-72
2023/12/06 09:00:25;;;;;;;1999.90;999.90;;;4.20;99.90;;;;;;4993456;28;20578;-72
2023/12/06 09:02:51;;;;;;;1999.90;999.90;;;4.20;99.90;;;;;;4993255;28;20197;-72
2023/12/06 09:05:17;;;;;;;1999.90;999.90;;;4.40;99.90;;;;;;4992161;28;20265;-72
2023/12/06 09:07:43;;;;;;;1999.90;999.90;;;4.30;99.90;;;;;;4992725;28;20544;-72
2023/12/06 09:10:09;;;;;;;1999.90;999.90;;;4.30;99.90;;;;;;4993315;28;20170;-72
2023/12/06 09:12:34;;;;;;;1999.90;999.90;;;4.30;99.90;;;;;;4993256;28;20169;-72
2023/12/06 09:15:00;;;;;;;1999.90;999.90;;;5.10;99.90;;;;;;4993109;28;20423;-71
2023/12/06 09:17:26;;;;;;;1999.90;999.90;;;4.70;99.90;;;;;;4992751;28;20174;-71
2023/12/06 09:19:52;;;;;;;1999.90;999.90;;;4.90;99.90;;;;;;4993193;28;20204;-71
2023/12/06 09:22:20;;;;;;;1999.90;999.90;;;4.30;99.90;;;;;;4992707;28;20204;-71
2023/12/06 09:24:46;;;;;;;1999.90;999.90;;;4.40;99.90;;;;;;4992979;28;20420;-71
2023/12/06 09:27:12;;;;;;;1999.90;999.90;;;5.30;99.90;;;;;;4992763;28;20405;-71
2023/12/06 09:29:37;;;;;;;1999.90;999.90;;;4.50;99.90;;;;;;4992816;28;20499;-71
2023/12/06 09:32:04;;;;;;;1999.90;999.90;;;4.50;99.90;;;;;;4992813;28;20177;-71
2023/12/06 09:34:30;;;;;;;1999.90;999.90;;;4.40;99.90;;;;;;4992281;28;20177;-71
2023/12/06 09:36:56;;;;;;;1999.90;999.90;;;5.10;99.90;;;;;;4992686;28;20440;-72
2023/12/06 09:39:22;;;;;;;1999.90;999.90;;;4.40;99.90;;;;;;4993796;28;20468;-72
2023/12/06 09:41:48;;;;;;;1999.90;999.90;;;4.00;99.90;;;;;;4993286;28;20205;-72
2023/12/06 09:44:17;;;;;;;1999.90;999.90;;;4.00;99.90;;;;;;4992839;28;20412;-70
2023/12/06 09:46:44;;;;;;;1999.90;999.90;;;4.50;99.90;;;;;;4992617;28;20467;-70
2023/12/06 09:49:10;;;;;;;1999.90;999.90;;;4.10;99.90;;;;;;4992336;28;20993;-70
2023/12/06 09:51:36;;;;;;;1999.90;999.90;;;4.50;99.90;;;;;;4992455;28;20408;-70
2023/12/06 09:54:02;;;;;;;1999.90;999.90;;;4.20;99.90;;;;;;4992492;28;20185;-70
2023/12/06 09:56:27;;;;;;;1999.90;999.90;;;4.60;99.90;;;;;;4992550;28;20408;-70
2023/12/06 09:58:53;;;;;;;1999.90;999.90;;;4.70;99.90;;;;;;4992380;28;20296;-71
2023/12/06 10:01:18;;;;;;;1999.90;999.90;;;4.60;99.90;;;;;;4992289;28;20224;-71
2023/12/06 10:03:46;;;;;;;1999.90;999.90;;;5.10;99.90;;;;;;4992391;28;20248;-70
2023/12/06 10:06:12;;;;;;;1999.90;999.90;;;4.90;99.90;;;;;;4992415;28;20688;-70
2023/12/06 10:08:38;;;;;;;1999.90;999.90;;;5.20;99.90;;;;;;5039749;22;20495;-70
2023/12/06 10:11:09;;;;;;;1999.90;999.90;;;5.00;99.90;;;;;;5011915;28;20407;-70
2023/12/06 10:13:39;;;;;;;1999.90;999.90;;;4.90;99.90;;;;;;5012074;28;20180;-70
2023/12/06 10:16:19;;;;;;;1999.90;999.90;;;5.00;99.90;;;;;;5011666;28;20435;-71
2023/12/06 10:18:47;;;;;;;1999.90;999.90;;;5.00;99.90;;;;;;5002967;28;20798;-71
2023/12/06 10:21:13;;;;;;;1999.90;999.90;;;5.10;99.90;;;;;;4992307;28;20437;-70
2023/12/06 10:23:38;;;;;;;1999.90;999.90;;;5.20;99.90;;;;;;4991921;28;20753;-70
2023/12/06 10:26:13;;;;;;;1999.90;999.90;;;5.40;99.90;;;;;;4992129;28;20440;-70
2023/12/06 10:28:39;;;;;;;1999.90;999.90;;;5.50;99.90;;;;;;4991901;28;20209;-71
2023/12/06 10:31:06;;;;;;;1999.90;999.90;;;5.60;99.90;;;;;;4991810;28;20448;-70
2023/12/06 10:33:32;;;;;;;1999.90;999.90;;;5.70;99.90;;;;;;4992382;28;20641;-72
2023/12/06 10:36:00;;;;;;;1999.90;999.90;;;5.80;99.90;;;;;;4992047;28;20397;-72
2023/12/06 10:38:28;;;;;;;1999.90;999.90;;;5.90;99.90;;;;;;4991968;28;20891;-72
2023/12/06 10:40:55;;;;;;;1999.90;999.90;;;6.00;99.90;;;;;;4992016;28;20429;-73
2023/12/06 10:43:23;;;;;;;1999.90;999.90;;;6.00;99.90;;;;;;4991973;28;20455;-72
2023/12/06 10:45:51;;;;;;;1999.90;999.90;;;6.00;99.90;;;;;;4991926;28;20409;-72
2023/12/06 10:48:17;;;;;;;1999.90;999.90;;;6.00;99.90;;;;;;4995881;28;20826;-72
2023/12/06 10:50:44;;;;;;;1999.90;999.90;;;6.00;99.90;;;;;;4995907;28;20471;-71
2023/12/06 10:53:16;;;;;;;1999.90;999.90;;;5.90;99.90;;;;;;4995639;28;20419;-72
2023/12/06 10:55:42;;;;;;;1999.90;999.90;;;5.70;99.90;;;;;;4995796;28;20413;-72
2023/12/06 10:58:08;;;;;;;1999.90;999.90;;;5.70;99.90;;;;;;4995498;28;20901;-72
2023/12/06 11:00:35;;;;;;;1999.90;999.90;;;5.60;99.90;;;;;;4995514;28;20405;-72
2023/12/06 11:03:01;;;;;;;1999.90;999.90;;;5.60;99.90;;;;;;4995665;28;20990;-72
2023/12/06 11:05:32;;;;;;;1999.90;999.90;;;5.60;99.90;;;;;;4995668;28;20455;-71
2023/12/06 11:08:27;;;;;;;1999.90;999.90;;;5.60;99.90;;;;;;4995172;28;20400;-72
2023/12/06 11:11:10;;;;;;;1999.90;999.90;;;5.70;99.90;;;;;;4995800;28;20449;-72
2023/12/06 11:13:53;;;;;;;1999.90;999.90;;;5.60;99.90;;;;;;4995529;28;20411;-71
2023/12/06 11:16:34;;;;;;;1999.90;999.90;;;5.70;99.90;;;;;;4995676;28;20401;-72
2023/12/06 11:19:00;;;;;;;1999.90;999.90;;;5.70;99.90;;;;;;4995170;28;20455;-72
2023/12/06 11:21:27;;;;;;;1999.90;999.90;;;5.70;99.90;;;;;;4995319;28;20978;-72
2023/12/06 11:23:54;;;;;;;1999.90;999.90;;;5.80;99.90;;;;;;4995096;28;20409;-71
2023/12/06 11:26:21;;;;;;;1999.90;999.90;;;5.80;99.90;;;;;;4995366;28;20499;-72
2023/12/06 11:28:47;;;;;;;1999.90;999.90;;;5.80;99.90;;;;;;4995517;28;20439;-71
2023/12/06 11:31:15;;;;;;;1999.90;999.90;;;6.00;99.90;;;;;;4994988;28;20932;-71
2023/12/06 11:33:40;;;;;;;1999.90;999.90;;;6.00;99.90;;;;;;4995011;28;20409;-71
2023/12/06 11:36:15;;;;;;;1999.90;999.90;;;6.10;99.90;;;;;;4995013;28;20427;-72
2023/12/06 11:38:42;;;;;;;1999.90;999.90;;;6.10;99.90;;;;;;4994611;28;20197;-72
2023/12/06 11:41:16;;;;;;;1999.90;999.90;;;6.10;99.90;;;;;;4994942;28;20499;-72
2023/12/06 11:43:50;;;;;;;1999.90;999.90;;;6.20;99.90;;;;;;4995018;28;20435;-71
2023/12/06 11:46:16;;;;;;;1999.90;999.90;;;6.40;99.90;;;;;;4994733;28;20487;-73
2023/12/06 11:48:44;;;;;;;1999.90;999.90;;;6.60;99.90;;;;;;4994665;28;20468;-71
2023/12/06 11:51:28;;;;;;;1999.90;999.90;;;7.30;99.90;;;;;;4994807;28;20419;-71
2023/12/06 11:53:56;;;;;;;1999.90;999.90;;;7.80;1.00;;;;;;4994582;28;20424;-71
2023/12/06 11:56:26;;;;;;;1999.90;999.90;;;7.80;1.00;;;;;;4994639;28;20487;-72
2023/12/06 11:58:52;;;;;;;1999.90;999.90;;;7.60;1.00;;;;;;4994007;28;20425;-72
2023/12/06 12:01:19;;;;;;;1999.90;999.90;;;7.50;1.00;;;;;;4994417;28;20441;-71
2023/12/06 12:03:49;;;;;;;1999.90;999.90;;;7.50;1.00;;;;;;4994546;28;20808;-72
2023/12/06 12:06:16;;;;;;;1999.90;999.90;;;7.80;1.00;;;;;;4994574;28;20401;-71
2023/12/06 12:08:42;;;;;;;1999.90;999.90;;;8.30;1.00;;;;;;4994048;28;20440;-72